sensor_id;sensor_type;location;lat;lon;timestamp;pressure;altitude;pressure_sealevel;temperature
34807;BMP180;18310;55.586;12.286;2023-02-20T00:02:11;101320.00;;;13.00
34807;BMP180;18310;55.586;12.286;2023-02-20T00:05:15;101319.00;;;13.00
34807;BMP180;18310;55.586;12.286;2023-02-20T00:08:20;101306.00;;;12.80
34807;BMP180;18310;55.586;12.286;2023-02-20T00:11:24;101287.00;;;12.80
34807;BMP180;18310;55.586;12.286;2023-02-20T00:14:28;101271.00;;;12.70
34807;BMP180;18310;55.586;12.286;2023-02-20T00:17:31;101263.00;;;12.60
34807;BMP180;18310;55.586;12.286;2023-02-20T00:20:35;101255.00;;;12.50
34807;BMP180;18310;55.586;12.286;2023-02-20T00:23:40;101246.00;;;12.60
34807;BMP180;18310;55.586;12.286;2023-02-20T00:26:47;101246.00;;;12.50
34807;BMP180;18310;55.586;12.286;2023-02-20T00:29:50;101247.00;;;12.50
34807;BMP180;18310;55.586;12.286;2023-02-20T00:32:55;101233.00;;;12.60
34807;BMP180;18310;55.586;12.286;2023-02-20T00:35:59;101224.00;;;12.70
34807;BMP180;18310;55.586;12.286;2023-02-20T00:39:04;101213.00;;;12.60
34807;BMP180;18310;55.586;12.286;2023-02-20T00:42:08;101196.00;;;12.60
34807;BMP180;18310;55.586;12.286;2023-02-20T00:45:12;101180.00;;;12.50
34807;BMP180;18310;55.586;12.286;2023-02-20T00:48:16;101180.00;;;12.70
34807;BMP180;18310;55.586;12.286;2023-02-20T00:51:19;101180.00;;;12.90
34807;BMP180;18310;55.586;12.286;2023-02-20T00:54:24;101172.00;;;12.80
34807;BMP180;18310;55.586;12.286;2023-02-20T00:57:27;101165.00;;;12.70
34807;BMP180;18310;55.586;12.286;2023-02-20T01:00:31;101158.00;;;12.70
34807;BMP180;18310;55.586;12.286;2023-02-20T01:03:36;101156.00;;;12.80
34807;BMP180;18310;55.586;12.286;2023-02-20T01:06:39;101140.00;;;12.90
34807;BMP180;18310;55.586;12.286;2023-02-20T01:09:44;101133.00;;;13.20
34807;BMP180;18310;55.586;12.286;2023-02-20T01:12:48;101143.00;;;12.90
34807;BMP180;18310;55.586;12.286;2023-02-20T01:15:51;101121.00;;;12.90
34807;BMP180;18310;55.586;12.286;2023-02-20T01:18:55;101124.00;;;12.80
34807;BMP180;18310;55.586;12.286;2023-02-20T01:21:58;101110.00;;;12.80
34807;BMP180;18310;55.586;12.286;2023-02-20T01:25:06;101102.00;;;12.80
34807;BMP180;18310;55.586;12.286;2023-02-20T01:28:09;101093.00;;;12.80
34807;BMP180;18310;55.586;12.286;2023-02-20T01:31:13;101082.00;;;12.80
34807;BMP180;18310;55.586;12.286;2023-02-20T01:34:17;101082.00;;;13.00
34807;BMP180;18310;55.586;12.286;2023-02-20T01:37:21;101069.00;;;13.40
34807;BMP180;18310;55.586;12.286;2023-02-20T01:40:27;101067.00;;;13.50
34807;BMP180;18310;55.586;12.286;2023-02-20T01:43:30;101043.00;;;13.30
34807;BMP180;18310;55.586;12.286;2023-02-20T01:46:45;101031.00;;;13.20
34807;BMP180;18310;55.586;12.286;2023-02-20T01:49:54;101010.00;;;13.20
34807;BMP180;18310;55.586;12.286;2023-02-20T01:53:04;101009.00;;;13.60
34807;BMP180;18310;55.586;12.286;2023-02-20T01:56:11;101007.00;;;13.80
34807;BMP180;18310;55.586;12.286;2023-02-20T01:59:16;100990.00;;;13.90
34807;BMP180;18310;55.586;12.286;2023-02-20T02:02:20;100986.00;;;13.90
34807;BMP180;18310;55.586;12.286;2023-02-20T02:05:26;100967.00;;;13.90
34807;BMP180;18310;55.586;12.286;2023-02-20T02:08:33;100964.00;;;13.90
34807;BMP180;18310;55.586;12.286;2023-02-20T02:11:39;100961.00;;;13.70
34807;BMP180;18310;55.586;12.286;2023-02-20T02:14:43;100943.00;;;13.50
34807;BMP180;18310;55.586;12.286;2023-02-20T02:18:16;100947.00;;;13.80
34807;BMP180;18310;55.586;12.286;2023-02-20T02:21:53;100941.00;;;13.70
34807;BMP180;18310;55.586;12.286;2023-02-20T02:25:30;100920.00;;;13.60
34807;BMP180;18310;55.586;12.286;2023-02-20T02:29:10;100929.00;;;13.90
34807;BMP180;18310;55.586;12.286;2023-02-20T02:32:59;100904.00;;;14.00
34807;BMP180;18310;55.586;12.286;2023-02-20T02:36:45;100884.00;;;14.10
34807;BMP180;18310;55.586;12.286;2023-02-20T02:39:59;100862.00;;;14.10
34807;BMP180;18310;55.586;12.286;2023-02-20T02:43:12;100857.00;;;14.20
34807;BMP180;18310;55.586;12.286;2023-02-20T02:46:25;100850.00;;;14.20
34807;BMP180;18310;55.586;12.286;2023-02-20T02:49:40;100830.00;;;14.20
34807;BMP180;18310;55.586;12.286;2023-02-20T02:52:47;100835.00;;;14.30
34807;BMP180;18310;55.586;12.286;2023-02-20T02:55:51;100822.00;;;14.30
34807;BMP180;18310;55.586;12.286;2023-02-20T02:58:54;100808.00;;;14.30
34807;BMP180;18310;55.586;12.286;2023-02-20T03:02:02;100794.00;;;14.40
34807;BMP180;18310;55.586;12.286;2023-02-20T03:05:11;100785.00;;;14.40
34807;BMP180;18310;55.586;12.286;2023-02-20T03:08:36;100764.00;;;14.50
34807;BMP180;18310;55.586;12.286;2023-02-20T03:11:43;100751.00;;;14.50
34807;BMP180;18310;55.586;12.286;2023-02-20T03:14:54;100729.00;;;14.50
34807;BMP180;18310;55.586;12.286;2023-02-20T03:18:28;100736.00;;;14.50
34807;BMP180;18310;55.586;12.286;2023-02-20T03:21:36;100729.00;;;14.50
34807;BMP180;18310;55.586;12.286;2023-02-20T03:24:43;100720.00;;;14.50
34807;BMP180;18310;55.586;12.286;2023-02-20T03:27:58;100704.00;;;14.50
34807;BMP180;18310;55.586;12.286;2023-02-20T03:31:06;100679.00;;;14.50
34807;BMP180;18310;55.586;12.286;2023-02-20T03:34:17;100664.00;;;14.50
34807;BMP180;18310;55.586;12.286;2023-02-20T03:37:42;100649.00;;;14.50
34807;BMP180;18310;55.586;12.286;2023-02-20T03:41:06;100659.00;;;14.50
34807;BMP180;18310;55.586;12.286;2023-02-20T03:44:29;100655.00;;;14.60
34807;BMP180;18310;55.586;12.286;2023-02-20T03:47:35;100648.00;;;14.60
34807;BMP180;18310;55.586;12.286;2023-02-20T03:50:40;100638.00;;;14.60
34807;BMP180;18310;55.586;12.286;2023-02-20T03:53:45;100635.00;;;14.70
34807;BMP180;18310;55.586;12.286;2023-02-20T03:56:55;100613.00;;;14.80
34807;BMP180;18310;55.586;12.286;2023-02-20T04:00:05;100616.00;;;14.80
34807;BMP180;18310;55.586;12.286;2023-02-20T04:03:17;100632.00;;;14.90
34807;BMP180;18310;55.586;12.286;2023-02-20T04:06:27;100622.00;;;14.90
34807;BMP180;18310;55.586;12.286;2023-02-20T04:09:34;100608.00;;;15.00
34807;BMP180;18310;55.586;12.286;2023-02-20T04:12:44;100583.00;;;15.00
34807;BMP180;18310;55.586;12.286;2023-02-20T04:15:48;100574.00;;;15.00
34807;BMP180;18310;55.586;12.286;2023-02-20T04:18:52;100568.00;;;15.20
34807;BMP180;18310;55.586;12.286;2023-02-20T04:22:00;100528.00;;;15.10
34807;BMP180;18310;55.586;12.286;2023-02-20T04:25:13;100520.00;;;15.20
34807;BMP180;18310;55.586;12.286;2023-02-20T04:28:22;100506.00;;;15.20
34807;BMP180;18310;55.586;12.286;2023-02-20T04:31:26;100491.00;;;15.20
34807;BMP180;18310;55.586;12.286;2023-02-20T04:34:30;100473.00;;;15.20
34807;BMP180;18310;55.586;12.286;2023-02-20T04:37:33;100471.00;;;15.30
34807;BMP180;18310;55.586;12.286;2023-02-20T04:40:36;100449.00;;;15.30
34807;BMP180;18310;55.586;12.286;2023-02-20T04:43:41;100452.00;;;15.30
34807;BMP180;18310;55.586;12.286;2023-02-20T04:46:45;100448.00;;;15.30
34807;BMP180;18310;55.586;12.286;2023-02-20T04:49:49;100454.00;;;15.30
34807;BMP180;18310;55.586;12.286;2023-02-20T04:52:53;100428.00;;;15.40
34807;BMP180;18310;55.586;12.286;2023-02-20T04:55:56;100415.00;;;15.20
34807;BMP180;18310;55.586;12.286;2023-02-20T04:59:06;100408.00;;;15.00
34807;BMP180;18310;55.586;12.286;2023-02-20T05:02:11;100400.00;;;15.30
34807;BMP180;18310;55.586;12.286;2023-02-20T05:05:19;100417.00;;;15.50
34807;BMP180;18310;55.586;12.286;2023-02-20T05:08:22;100453.00;;;15.50
34807;BMP180;18310;55.586;12.286;2023-02-20T05:11:27;100494.00;;;15.50
34807;BMP180;18310;55.586;12.286;2023-02-20T05:14:32;100509.00;;;15.00
34807;BMP180;18310;55.586;12.286;2023-02-20T05:17:35;100491.00;;;14.90
34807;BMP180;18310;55.586;12.286;2023-02-20T05:20:39;100484.00;;;15.00
34807;BMP180;18310;55.586;12.286;2023-02-20T05:24:00;100475.00;;;15.30
34807;BMP180;18310;55.586;12.286;2023-02-20T05:27:07;100473.00;;;15.30
34807;BMP180;18310;55.586;12.286;2023-02-20T05:30:12;100438.00;;;15.00
34807;BMP180;18310;55.586;12.286;2023-02-20T05:33:17;100424.00;;;15.10
34807;BMP180;18310;55.586;12.286;2023-02-20T05:36:20;100418.00;;;15.50
34807;BMP180;18310;55.586;12.286;2023-02-20T05:39:23;100413.00;;;15.60
34807;BMP180;18310;55.586;12.286;2023-02-20T05:42:27;100391.00;;;15.70
34807;BMP180;18310;55.586;12.286;2023-02-20T05:45:32;100380.00;;;15.50
34807;BMP180;18310;55.586;12.286;2023-02-20T05:48:35;100351.00;;;15.60
34807;BMP180;18310;55.586;12.286;2023-02-20T05:51:38;100323.00;;;15.70
34807;BMP180;18310;55.586;12.286;2023-02-20T05:54:44;100333.00;;;15.60
34807;BMP180;18310;55.586;12.286;2023-02-20T05:57:48;100319.00;;;15.20
34807;BMP180;18310;55.586;12.286;2023-02-20T06:00:52;100316.00;;;15.30
34807;BMP180;18310;55.586;12.286;2023-02-20T06:03:56;100326.00;;;15.60
34807;BMP180;18310;55.586;12.286;2023-02-20T06:06:59;100291.00;;;15.80
34807;BMP180;18310;55.586;12.286;2023-02-20T06:10:03;100367.00;;;15.90
34807;BMP180;18310;55.586;12.286;2023-02-20T06:13:06;100359.00;;;15.90
34807;BMP180;18310;55.586;12.286;2023-02-20T06:16:11;100348.00;;;15.50
34807;BMP180;18310;55.586;12.286;2023-02-20T06:19:19;100351.00;;;15.40
34807;BMP180;18310;55.586;12.286;2023-02-20T06:22:23;100344.00;;;15.60
34807;BMP180;18310;55.586;12.286;2023-02-20T06:25:27;100361.00;;;15.90
34807;BMP180;18310;55.586;12.286;2023-02-20T06:28:33;100349.00;;;16.00
34807;BMP180;18310;55.586;12.286;2023-02-20T06:31:38;100342.00;;;16.10
34807;BMP180;18310;55.586;12.286;2023-02-20T06:34:43;100359.00;;;16.20
34807;BMP180;18310;55.586;12.286;2023-02-20T06:37:46;100361.00;;;16.30
34807;BMP180;18310;55.586;12.286;2023-02-20T06:40:50;100375.00;;;16.10
34807;BMP180;18310;55.586;12.286;2023-02-20T06:43:53;100361.00;;;15.70
34807;BMP180;18310;55.586;12.286;2023-02-20T06:46:58;100373.00;;;15.80
34807;BMP180;18310;55.586;12.286;2023-02-20T06:50:01;100354.00;;;16.20
34807;BMP180;18310;55.586;12.286;2023-02-20T06:53:04;100351.00;;;16.40
34807;BMP180;18310;55.586;12.286;2023-02-20T06:56:09;100340.00;;;16.50
34807;BMP180;18310;55.586;12.286;2023-02-20T06:59:14;100354.00;;;16.60
34807;BMP180;18310;55.586;12.286;2023-02-20T07:02:18;100356.00;;;16.60
34807;BMP180;18310;55.586;12.286;2023-02-20T07:05:22;100334.00;;;16.70
34807;BMP180;18310;55.586;12.286;2023-02-20T07:08:25;100338.00;;;16.70
34807;BMP180;18310;55.586;12.286;2023-02-20T07:11:29;100308.00;;;16.60
34807;BMP180;18310;55.586;12.286;2023-02-20T07:14:32;100312.00;;;16.10
34807;BMP180;18310;55.586;12.286;2023-02-20T07:17:37;100292.00;;;16.10
34807;BMP180;18310;55.586;12.286;2023-02-20T07:20:41;100291.00;;;16.40
34807;BMP180;18310;55.586;12.286;2023-02-20T07:23:44;100313.00;;;16.60
34807;BMP180;18310;55.586;12.286;2023-02-20T07:26:47;100289.00;;;16.70
34807;BMP180;18310;55.586;12.286;2023-02-20T07:29:50;100301.00;;;16.80
34807;BMP180;18310;55.586;12.286;2023-02-20T07:32:55;100301.00;;;16.80
34807;BMP180;18310;55.586;12.286;2023-02-20T07:35:58;100308.00;;;16.90
34807;BMP180;18310;55.586;12.286;2023-02-20T07:39:03;100296.00;;;16.90
34807;BMP180;18310;55.586;12.286;2023-02-20T07:42:08;100296.00;;;17.00
34807;BMP180;18310;55.586;12.286;2023-02-20T07:45:11;100278.00;;;17.00
34807;BMP180;18310;55.586;12.286;2023-02-20T07:48:15;100286.00;;;17.10
34807;BMP180;18310;55.586;12.286;2023-02-20T07:51:19;100278.00;;;17.10
34807;BMP180;18310;55.586;12.286;2023-02-20T07:54:22;100291.00;;;17.10
34807;BMP180;18310;55.586;12.286;2023-02-20T07:57:25;100259.00;;;17.20
34807;BMP180;18310;55.586;12.286;2023-02-20T08:00:28;100263.00;;;17.20
34807;BMP180;18310;55.586;12.286;2023-02-20T08:03:33;100260.00;;;17.20
34807;BMP180;18310;55.586;12.286;2023-02-20T08:06:36;100243.00;;;17.10
34807;BMP180;18310;55.586;12.286;2023-02-20T08:09:41;100226.00;;;16.90
34807;BMP180;18310;55.586;12.286;2023-02-20T08:12:45;100206.00;;;16.70
34807;BMP180;18310;55.586;12.286;2023-02-20T08:15:49;100208.00;;;16.70
34807;BMP180;18310;55.586;12.286;2023-02-20T08:18:53;100208.00;;;17.10
34807;BMP180;18310;55.586;12.286;2023-02-20T08:21:56;100196.00;;;17.20
34807;BMP180;18310;55.586;12.286;2023-02-20T08:25:00;100182.00;;;17.30
34807;BMP180;18310;55.586;12.286;2023-02-20T08:28:04;100181.00;;;17.40
34807;BMP180;18310;55.586;12.286;2023-02-20T08:31:08;100168.00;;;17.40
34807;BMP180;18310;55.586;12.286;2023-02-20T08:34:25;100171.00;;;17.50
34807;BMP180;18310;55.586;12.286;2023-02-20T08:37:28;100192.00;;;17.50
34807;BMP180;18310;55.586;12.286;2023-02-20T08:40:31;100189.00;;;17.50
34807;BMP180;18310;55.586;12.286;2023-02-20T08:43:36;100187.00;;;17.30
34807;BMP180;18310;55.586;12.286;2023-02-20T08:46:45;100160.00;;;17.10
34807;BMP180;18310;55.586;12.286;2023-02-20T08:49:49;100187.00;;;17.10
34807;BMP180;18310;55.586;12.286;2023-02-20T08:52:52;100173.00;;;17.40
34807;BMP180;18310;55.586;12.286;2023-02-20T08:55:56;100180.00;;;17.50
34807;BMP180;18310;55.586;12.286;2023-02-20T08:58:59;100177.00;;;17.50
34807;BMP180;18310;55.586;12.286;2023-02-20T09:02:03;100170.00;;;17.40
34807;BMP180;18310;55.586;12.286;2023-02-20T09:05:08;100173.00;;;17.30
34807;BMP180;18310;55.586;12.286;2023-02-20T09:08:12;100171.00;;;17.40
34807;BMP180;18310;55.586;12.286;2023-02-20T09:11:15;100152.00;;;17.10
34807;BMP180;18310;55.586;12.286;2023-02-20T09:14:19;100165.00;;;17.00
34807;BMP180;18310;55.586;12.286;2023-02-20T09:17:22;100157.00;;;16.80
34807;BMP180;18310;55.586;12.286;2023-02-20T09:20:27;100149.00;;;16.80
34807;BMP180;18310;55.586;12.286;2023-02-20T09:23:30;100149.00;;;16.90
34807;BMP180;18310;55.586;12.286;2023-02-20T09:26:34;100125.00;;;17.20
34807;BMP180;18310;55.586;12.286;2023-02-20T09:29:37;100130.00;;;16.90
34807;BMP180;18310;55.586;12.286;2023-02-20T09:32:44;100125.00;;;17.00
34807;BMP180;18310;55.586;12.286;2023-02-20T09:35:49;100130.00;;;17.40
34807;BMP180;18310;55.586;12.286;2023-02-20T09:38:56;100123.00;;;17.50
34807;BMP180;18310;55.586;12.286;2023-02-20T09:42:11;100118.00;;;17.70
34807;BMP180;18310;55.586;12.286;2023-02-20T09:45:21;100111.00;;;17.70
34807;BMP180;18310;55.586;12.286;2023-02-20T09:48:42;100114.00;;;17.80
34807;BMP180;18310;55.586;12.286;2023-02-20T09:51:53;100114.00;;;17.60
34807;BMP180;18310;55.586;12.286;2023-02-20T09:55:02;100091.00;;;17.30
34807;BMP180;18310;55.586;12.286;2023-02-20T09:58:19;100096.00;;;17.40
34807;BMP180;18310;55.586;12.286;2023-02-20T10:01:24;100101.00;;;17.20
34807;BMP180;18310;55.586;12.286;2023-02-20T10:04:34;100105.00;;;17.50
34807;BMP180;18310;55.586;12.286;2023-02-20T10:07:50;100107.00;;;17.30
34807;BMP180;18310;55.586;12.286;2023-02-20T10:10:56;100086.00;;;17.70
34807;BMP180;18310;55.586;12.286;2023-02-20T10:14:29;100096.00;;;17.70
34807;BMP180;18310;55.586;12.286;2023-02-20T10:17:46;100086.00;;;17.70
34807;BMP180;18310;55.586;12.286;2023-02-20T10:21:02;100100.00;;;17.60
34807;BMP180;18310;55.586;12.286;2023-02-20T10:24:27;100098.00;;;17.70
34807;BMP180;18310;55.586;12.286;2023-02-20T10:27:47;100101.00;;;17.70
34807;BMP180;18310;55.586;12.286;2023-02-20T10:30:59;100080.00;;;17.70
34807;BMP180;18310;55.586;12.286;2023-02-20T10:34:10;100070.00;;;17.70
34807;BMP180;18310;55.586;12.286;2023-02-20T10:37:21;100085.00;;;17.80
34807;BMP180;18310;55.586;12.286;2023-02-20T10:40:42;100079.00;;;17.80
34807;BMP180;18310;55.586;12.286;2023-02-20T10:43:53;100068.00;;;17.80
34807;BMP180;18310;55.586;12.286;2023-02-20T10:47:03;100095.00;;;17.90
34807;BMP180;18310;55.586;12.286;2023-02-20T10:50:16;100104.00;;;17.90
34807;BMP180;18310;55.586;12.286;2023-02-20T10:53:28;100112.00;;;17.90
34807;BMP180;18310;55.586;12.286;2023-02-20T10:56:39;100091.00;;;17.90
34807;BMP180;18310;55.586;12.286;2023-02-20T10:59:49;100094.00;;;17.90
34807;BMP180;18310;55.586;12.286;2023-02-20T11:03:05;100108.00;;;17.90
34807;BMP180;18310;55.586;12.286;2023-02-20T11:06:16;100081.00;;;17.80
34807;BMP180;18310;55.586;12.286;2023-02-20T11:09:20;100088.00;;;17.80
34807;BMP180;18310;55.586;12.286;2023-02-20T11:12:31;100092.00;;;17.80
34807;BMP180;18310;55.586;12.286;2023-02-20T11:15:37;100086.00;;;17.80
34807;BMP180;18310;55.586;12.286;2023-02-20T11:18:41;100092.00;;;17.80
34807;BMP180;18310;55.586;12.286;2023-02-20T11:21:48;100089.00;;;17.90
34807;BMP180;18310;55.586;12.286;2023-02-20T11:24:51;100084.00;;;17.90
34807;BMP180;18310;55.586;12.286;2023-02-20T11:28:06;100095.00;;;18.00
34807;BMP180;18310;55.586;12.286;2023-02-20T11:31:11;100100.00;;;18.00
34807;BMP180;18310;55.586;12.286;2023-02-20T11:34:19;100076.00;;;18.00
34807;BMP180;18310;55.586;12.286;2023-02-20T11:37:23;100087.00;;;18.10
34807;BMP180;18310;55.586;12.286;2023-02-20T11:40:29;100086.00;;;18.10
34807;BMP180;18310;55.586;12.286;2023-02-20T11:43:37;100075.00;;;18.10
34807;BMP180;18310;55.586;12.286;2023-02-20T11:46:47;100115.00;;;18.10
34807;BMP180;18310;55.586;12.286;2023-02-20T11:50:15;100115.00;;;18.30
34807;BMP180;18310;55.586;12.286;2023-02-20T11:53:25;100103.00;;;18.30
34807;BMP180;18310;55.586;12.286;2023-02-20T11:56:29;100113.00;;;18.30
34807;BMP180;18310;55.586;12.286;2023-02-20T11:59:38;100125.00;;;18.30
34807;BMP180;18310;55.586;12.286;2023-02-20T12:02:51;100132.00;;;18.40
34807;BMP180;18310;55.586;12.286;2023-02-20T12:05:56;100127.00;;;18.30
34807;BMP180;18310;55.586;12.286;2023-02-20T12:09:02;100146.00;;;18.40
34807;BMP180;18310;55.586;12.286;2023-02-20T12:12:10;100141.00;;;18.40
34807;BMP180;18310;55.586;12.286;2023-02-20T12:15:21;100131.00;;;18.50
34807;BMP180;18310;55.586;12.286;2023-02-20T12:18:52;100137.00;;;18.50
34807;BMP180;18310;55.586;12.286;2023-02-20T12:22:10;100135.00;;;18.50
34807;BMP180;18310;55.586;12.286;2023-02-20T12:25:23;100142.00;;;18.50
34807;BMP180;18310;55.586;12.286;2023-02-20T12:28:40;100144.00;;;18.60
34807;BMP180;18310;55.586;12.286;2023-02-20T12:32:04;100145.00;;;18.60
34807;BMP180;18310;55.586;12.286;2023-02-20T12:35:28;100112.00;;;18.60
34807;BMP180;18310;55.586;12.286;2023-02-20T12:38:46;100126.00;;;18.60
34807;BMP180;18310;55.586;12.286;2023-02-20T12:42:10;100133.00;;;18.60
34807;BMP180;18310;55.586;12.286;2023-02-20T12:45:26;100120.00;;;18.50
34807;BMP180;18310;55.586;12.286;2023-02-20T12:48:50;100125.00;;;18.50
34807;BMP180;18310;55.586;12.286;2023-02-20T12:52:04;100123.00;;;18.50
34807;BMP180;18310;55.586;12.286;2023-02-20T12:55:23;100122.00;;;18.50
34807;BMP180;18310;55.586;12.286;2023-02-20T12:58:40;100112.00;;;18.40
34807;BMP180;18310;55.586;12.286;2023-02-20T13:02:01;100131.00;;;18.40
34807;BMP180;18310;55.586;12.286;2023-02-20T13:05:14;100118.00;;;18.40
34807;BMP180;18310;55.586;12.286;2023-02-20T13:08:27;100113.00;;;18.40
34807;BMP180;18310;55.586;12.286;2023-02-20T13:11:40;100113.00;;;18.40
34807;BMP180;18310;55.586;12.286;2023-02-20T13:15:11;100130.00;;;18.40
34807;BMP180;18310;55.586;12.286;2023-02-20T13:18:27;100145.00;;;18.40
34807;BMP180;18310;55.586;12.286;2023-02-20T13:21:35;100137.00;;;18.40
34807;BMP180;18310;55.586;12.286;2023-02-20T13:24:39;100104.00;;;18.40
34807;BMP180;18310;55.586;12.286;2023-02-20T13:27:43;100116.00;;;18.50
34807;BMP180;18310;55.586;12.286;2023-02-20T13:31:07;100111.00;;;18.50
34807;BMP180;18310;55.586;12.286;2023-02-20T13:34:36;100116.00;;;18.50
34807;BMP180;18310;55.586;12.286;2023-02-20T13:37:53;100129.00;;;18.40
34807;BMP180;18310;55.586;12.286;2023-02-20T13:41:07;100143.00;;;18.40
34807;BMP180;18310;55.586;12.286;2023-02-20T13:44:36;100123.00;;;18.40
34807;BMP180;18310;55.586;12.286;2023-02-20T13:47:42;100117.00;;;18.40
34807;BMP180;18310;55.586;12.286;2023-02-20T13:50:46;100106.00;;;18.30
34807;BMP180;18310;55.586;12.286;2023-02-20T13:54:02;100122.00;;;18.30
34807;BMP180;18310;55.586;12.286;2023-02-20T13:57:17;100104.00;;;18.30
34807;BMP180;18310;55.586;12.286;2023-02-20T14:00:27;100109.00;;;18.30
34807;BMP180;18310;55.586;12.286;2023-02-20T14:03:32;100117.00;;;18.30
34807;BMP180;18310;55.586;12.286;2023-02-20T14:06:50;100091.00;;;18.40
34807;BMP180;18310;55.586;12.286;2023-02-20T14:10:06;100114.00;;;18.30
34807;BMP180;18310;55.586;12.286;2023-02-20T14:13:15;100114.00;;;18.40
34807;BMP180;18310;55.586;12.286;2023-02-20T14:16:41;100114.00;;;18.40
34807;BMP180;18310;55.586;12.286;2023-02-20T14:19:48;100116.00;;;18.50
34807;BMP180;18310;55.586;12.286;2023-02-20T14:23:13;100123.00;;;18.50
34807;BMP180;18310;55.586;12.286;2023-02-20T14:26:25;100122.00;;;18.50
34807;BMP180;18310;55.586;12.286;2023-02-20T14:29:32;100116.00;;;18.40
34807;BMP180;18310;55.586;12.286;2023-02-20T14:32:44;100134.00;;;18.40
34807;BMP180;18310;55.586;12.286;2023-02-20T14:36:19;100137.00;;;18.50
34807;BMP180;18310;55.586;12.286;2023-02-20T14:39:47;100129.00;;;18.50
34807;BMP180;18310;55.586;12.286;2023-02-20T14:43:03;100137.00;;;18.40
34807;BMP180;18310;55.586;12.286;2023-02-20T14:46:17;100143.00;;;18.40
34807;BMP180;18310;55.586;12.286;2023-02-20T14:49:28;100150.00;;;18.30
34807;BMP180;18310;55.586;12.286;2023-02-20T14:52:33;100134.00;;;18.30
34807;BMP180;18310;55.586;12.286;2023-02-20T14:55:37;100159.00;;;18.20
34807;BMP180;18310;55.586;12.286;2023-02-20T14:58:42;100146.00;;;18.20
34807;BMP180;18310;55.586;12.286;2023-02-20T15:01:45;100159.00;;;18.10
34807;BMP180;18310;55.586;12.286;2023-02-20T15:04:51;100162.00;;;18.10
34807;BMP180;18310;55.586;12.286;2023-02-20T15:08:09;100165.00;;;18.20
34807;BMP180;18310;55.586;12.286;2023-02-20T15:11:17;100156.00;;;18.50
34807;BMP180;18310;55.586;12.286;2023-02-20T15:14:27;100168.00;;;18.60
34807;BMP180;18310;55.586;12.286;2023-02-20T15:17:33;100155.00;;;18.50
34807;BMP180;18310;55.586;12.286;2023-02-20T15:20:41;100180.00;;;18.40
34807;BMP180;18310;55.586;12.286;2023-02-20T15:23:45;100192.00;;;18.30
34807;BMP180;18310;55.586;12.286;2023-02-20T15:26:48;100197.00;;;18.20
34807;BMP180;18310;55.586;12.286;2023-02-20T15:30:15;100204.00;;;18.20
34807;BMP180;18310;55.586;12.286;2023-02-20T15:33:18;100200.00;;;18.00
34807;BMP180;18310;55.586;12.286;2023-02-20T15:36:25;100200.00;;;18.00
34807;BMP180;18310;55.586;12.286;2023-02-20T15:39:38;100211.00;;;17.90
34807;BMP180;18310;55.586;12.286;2023-02-20T15:42:42;100219.00;;;17.80
34807;BMP180;18310;55.586;12.286;2023-02-20T15:45:49;100228.00;;;17.70
34807;BMP180;18310;55.586;12.286;2023-02-20T15:48:52;100233.00;;;17.60
34807;BMP180;18310;55.586;12.286;2023-02-20T15:51:58;100221.00;;;17.60
34807;BMP180;18310;55.586;12.286;2023-02-20T15:55:14;100229.00;;;17.50
34807;BMP180;18310;55.586;12.286;2023-02-20T15:58:24;100239.00;;;17.40
34807;BMP180;18310;55.586;12.286;2023-02-20T16:01:42;100238.00;;;17.40
34807;BMP180;18310;55.586;12.286;2023-02-20T16:04:53;100243.00;;;17.30
34807;BMP180;18310;55.586;12.286;2023-02-20T16:07:58;100243.00;;;17.30
34807;BMP180;18310;55.586;12.286;2023-02-20T16:11:02;100235.00;;;17.20
34807;BMP180;18310;55.586;12.286;2023-02-20T16:14:06;100247.00;;;17.20
34807;BMP180;18310;55.586;12.286;2023-02-20T16:17:17;100233.00;;;17.10
34807;BMP180;18310;55.586;12.286;2023-02-20T16:20:25;100251.00;;;17.00
34807;BMP180;18310;55.586;12.286;2023-02-20T16:23:30;100247.00;;;16.90
34807;BMP180;18310;55.586;12.286;2023-02-20T16:26:35;100270.00;;;16.90
34807;BMP180;18310;55.586;12.286;2023-02-20T16:29:40;100254.00;;;16.80
34807;BMP180;18310;55.586;12.286;2023-02-20T16:32:51;100261.00;;;16.80
34807;BMP180;18310;55.586;12.286;2023-02-20T16:35:58;100259.00;;;16.80
34807;BMP180;18310;55.586;12.286;2023-02-20T16:39:07;100249.00;;;16.80
34807;BMP180;18310;55.586;12.286;2023-02-20T16:42:31;100254.00;;;16.70
34807;BMP180;18310;55.586;12.286;2023-02-20T16:45:35;100270.00;;;16.70
34807;BMP180;18310;55.586;12.286;2023-02-20T16:48:40;100262.00;;;16.80
34807;BMP180;18310;55.586;12.286;2023-02-20T16:51:49;100274.00;;;16.90
34807;BMP180;18310;55.586;12.286;2023-02-20T16:55:05;100275.00;;;16.90
34807;BMP180;18310;55.586;12.286;2023-02-20T16:58:15;100281.00;;;16.90
34807;BMP180;18310;55.586;12.286;2023-02-20T17:01:23;100284.00;;;16.90
34807;BMP180;18310;55.586;12.286;2023-02-20T17:04:34;100287.00;;;16.90
34807;BMP180;18310;55.586;12.286;2023-02-20T17:07:37;100288.00;;;16.90
34807;BMP180;18310;55.586;12.286;2023-02-20T17:10:41;100295.00;;;16.90
34807;BMP180;18310;55.586;12.286;2023-02-20T17:13:45;100298.00;;;16.90
34807;BMP180;18310;55.586;12.286;2023-02-20T17:16:51;100304.00;;;16.90
34807;BMP180;18310;55.586;12.286;2023-02-20T17:19:56;100311.00;;;16.80
34807;BMP180;18310;55.586;12.286;2023-02-20T17:23:14;100304.00;;;16.80
34807;BMP180;18310;55.586;12.286;2023-02-20T17:26:30;100311.00;;;16.70
34807;BMP180;18310;55.586;12.286;2023-02-20T17:29:51;100311.00;;;16.70
34807;BMP180;18310;55.586;12.286;2023-02-20T17:33:08;100307.00;;;16.60
34807;BMP180;18310;55.586;12.286;2023-02-20T17:36:15;100293.00;;;16.50
34807;BMP180;18310;55.586;12.286;2023-02-20T17:39:22;100301.00;;;16.50